Time;durP1;ratioP1;P1;durP2;ratioP2;P2;SDS_P1;SDS_P2;PMS_P1;PMS_P2;Temp;Humidity;BMP_temperature;BMP_pressure;BME280_temperature;BME280_humidity;BME280_pressure;Samples;Min_cycle;Max_cycle;Signal;HPM_P1;HPM_P2
2023/12/23 00:01:57;;;;;;;;;;;;;;;8.35;nan;99227.69;5028741;28;19959;-85
2023/12/23 00:04:22;;;;;;;;;;;;;;;8.38;nan;99224.47;5026157;28;19927;-84
2023/12/23 00:06:48;;;;;;;;;;;;;;;8.36;nan;99246.09;5027216;28;19961;-83
2023/12/23 00:09:15;;;;;;;;;;;;;;;8.37;nan;99247.69;5026682;28;19925;-84
2023/12/23 00:11:41;;;;;;;;;;;;;;;8.34;nan;99239.44;5027463;28;19998;-84
2023/12/23 00:14:06;;;;;;;;;;;;;;;8.32;nan;99250.34;5026108;28;20456;-85
2023/12/23 00:16:32;;;;;;;;;;;;;;;8.28;nan;99254.63;5026785;28;20677;-85
2023/12/23 00:18:57;;;;;;;;;;;;;;;8.27;nan;99263.69;5027813;28;19931;-85
2023/12/23 00:21:22;;;;;;;;;;;;;;;8.25;nan;99265.81;5027094;28;19929;-84
2023/12/23 00:23:47;;;;;;;;;;;;;;;8.23;nan;99262.63;5029128;28;20015;-84
2023/12/23 00:26:13;;;;;;;;;;;;;;;8.21;nan;99277.28;5027166;28;19948;-85
2023/12/23 00:28:38;;;;;;;;;;;;;;;8.18;nan;99271.44;5026392;28;19924;-84
2023/12/23 00:31:03;;;;;;;;;;;;;;;8.18;nan;99278.63;5027615;28;20621;-85
2023/12/23 00:33:28;;;;;;;;;;;;;;;8.15;nan;99282.66;5027697;28;20063;-84
2023/12/23 00:35:54;;;;;;;;;;;;;;;8.14;nan;99291.72;5029713;28;19925;-84
2023/12/23 00:38:19;;;;;;;;;;;;;;;8.16;nan;99297.56;5028569;28;20575;-84
2023/12/23 00:40:44;;;;;;;;;;;;;;;8.13;nan;99300.78;5029562;28;19931;-83
2023/12/23 00:43:09;;;;;;;;;;;;;;;8.08;nan;99298.13;5031318;28;19931;-85
2023/12/23 00:45:35;;;;;;;;;;;;;;;8.05;nan;99303.97;5029333;28;20367;-84
2023/12/23 00:48:00;;;;;;;;;;;;;;;8.07;nan;99312.50;5029400;28;19924;-83
2023/12/23 00:50:25;;;;;;;;;;;;;;;8.08;nan;99324.00;5029875;28;20057;-84
2023/12/23 00:52:51;;;;;;;;;;;;;;;8.09;nan;99320.28;5030114;28;20439;-84
2023/12/23 00:55:17;;;;;;;;;;;;;;;8.06;nan;99326.09;5029460;28;19960;-84
2023/12/23 00:57:42;;;;;;;;;;;;;;;8.07;nan;99333.84;5028387;28;19925;-84
2023/12/23 01:00:08;;;;;;;;;;;;;;;8.07;nan;99339.19;5028873;28;19932;-84
2023/12/23 01:02:33;;;;;;;;;;;;;;;8.05;nan;99345.84;5028906;28;19929;-85
2023/12/23 01:04:58;;;;;;;;;;;;;;;8.06;nan;99350.91;5029751;28;20469;-84
2023/12/23 01:07:23;;;;;;;;;;;;;;;8.03;nan;99364.00;5029511;28;19925;-84
2023/12/23 01:09:49;;;;;;;;;;;;;;;8.03;nan;99358.66;5030052;28;20353;-84
2023/12/23 01:12:14;;;;;;;;;;;;;;;8.01;nan;99372.25;5029726;28;21242;-84
2023/12/23 01:14:39;;;;;;;;;;;;;;;8.03;nan;99390.66;5029952;28;19920;-83
2023/12/23 01:17:04;;;;;;;;;;;;;;;8.06;nan;99390.94;5029924;28;20377;-83
2023/12/23 01:19:30;;;;;;;;;;;;;;;8.08;nan;99388.81;5029803;28;19925;-84
2023/12/23 01:21:55;;;;;;;;;;;;;;;8.07;nan;99403.19;5030131;28;20048;-84
2023/12/23 01:24:20;;;;;;;;;;;;;;;8.11;nan;99401.63;5028645;28;19924;-84
2023/12/23 01:26:46;;;;;;;;;;;;;;;8.14;nan;99416.31;5029441;28;20055;-84
2023/12/23 01:29:11;;;;;;;;;;;;;;;8.14;nan;99424.31;5028473;28;19963;-84
2023/12/23 01:31:36;;;;;;;;;;;;;;;8.15;nan;99413.38;5028339;28;19925;-84
2023/12/23 01:34:01;;;;;;;;;;;;;;;8.17;nan;99429.09;5029780;28;19925;-83
2023/12/23 01:36:27;;;;;;;;;;;;;;;8.09;nan;99434.97;5028477;28;19990;-84
2023/12/23 01:38:52;;;;;;;;;;;;;;;8.07;nan;99439.75;5030201;28;19925;-83
2023/12/23 01:41:17;;;;;;;;;;;;;;;8.01;nan;99438.13;5029679;28;19933;-83
2023/12/23 01:43:42;;;;;;;;;;;;;;;8.03;nan;99452.81;5028630;28;19924;-84
2023/12/23 01:46:08;;;;;;;;;;;;;;;8.05;nan;99441.88;5026799;28;19925;-83
2023/12/23 01:48:39;;;;;;;;;;;;;;;8.06;nan;99464.81;5027268;28;19924;-83
2023/12/23 01:51:04;;;;;;;;;;;;;;;8.05;nan;99464.03;5027776;28;20063;-83
2023/12/23 01:53:30;;;;;;;;;;;;;;;8.05;nan;99468.56;5028732;28;20306;-83
2023/12/23 01:55:56;;;;;;;;;;;;;;;8.03;nan;99468.81;5029050;28;19928;-83
2023/12/23 01:58:22;;;;;;;;;;;;;;;8.03;nan;99470.69;5026795;28;20595;-83
2023/12/23 02:00:47;;;;;;;;;;;;;;;8.07;nan;99471.75;5029076;28;19929;-82
2023/12/23 02:03:13;;;;;;;;;;;;;;;8.02;nan;99475.22;5027681;28;20278;-83
2023/12/23 02:05:38;;;;;;;;;;;;;;;8.01;nan;99468.28;5028381;28;20434;-83
2023/12/23 02:08:03;;;;;;;;;;;;;;;8.00;nan;99485.34;5027085;28;20530;-83
2023/12/23 02:10:29;;;;;;;;;;;;;;;7.99;nan;99483.75;5028959;28;20064;-84
2023/12/23 02:13:10;;;;;;;;;;;;;;;8.01;nan;99499.50;5029874;28;19932;-83
2023/12/23 02:15:36;;;;;;;;;;;;;;;8.04;nan;99497.09;5029174;28;19978;-83
2023/12/23 02:18:01;;;;;;;;;;;;;;;8.01;nan;99505.63;5031275;28;20016;-84
2023/12/23 02:20:27;;;;;;;;;;;;;;;7.99;nan;99507.75;5032220;28;21142;-84
2023/12/23 02:22:52;;;;;;;;;;;;;;;7.95;nan;99504.00;5033137;28;20022;-83
2023/12/23 02:25:18;;;;;;;;;;;;;;;7.96;nan;99510.94;5031164;28;19925;-84
2023/12/23 02:27:50;;;;;;;;;;;;;;;8.03;nan;99510.69;5032648;28;19960;-83
2023/12/23 02:30:16;;;;;;;;;;;;;;;8.01;nan;99521.63;5031615;28;19979;-83
2023/12/23 02:32:42;;;;;;;;;;;;;;;7.96;nan;99518.16;5013390;28;19925;-83
2023/12/23 02:35:08;;;;;;;;;;;;;;;7.95;nan;99508.53;5031209;28;20331;-83
2023/12/23 02:37:33;;;;;;;;;;;;;;;7.92;nan;99517.88;5031444;28;19925;-84
2023/12/23 02:39:59;;;;;;;;;;;;;;;7.91;nan;99526.94;5030035;28;19925;-83
2023/12/23 02:42:24;;;;;;;;;;;;;;;7.94;nan;99529.06;5013739;28;19964;-83
2023/12/23 02:44:50;;;;;;;;;;;;;;;7.93;nan;99524.81;5031026;28;19927;-83
2023/12/23 02:47:15;;;;;;;;;;;;;;;7.95;nan;99529.88;5030689;28;19921;-83
2023/12/23 02:49:40;;;;;;;;;;;;;;;7.92;nan;99539.22;5030866;28;20866;-84
2023/12/23 02:52:05;;;;;;;;;;;;;;;7.92;nan;99525.88;5030861;28;19975;-84
2023/12/23 02:54:31;;;;;;;;;;;;;;;7.91;nan;99547.47;5030794;28;19925;-84
2023/12/23 02:56:56;;;;;;;;;;;;;;;7.93;nan;99550.69;5033099;28;19964;-84
2023/12/23 02:59:21;;;;;;;;;;;;;;;7.93;nan;99561.34;5029811;28;19960;-83
2023/12/23 03:01:47;;;;;;;;;;;;;;;7.93;nan;99559.47;5031326;28;20451;-83
2023/12/23 03:04:12;;;;;;;;;;;;;;;7.86;nan;99567.69;5030770;28;19927;-84
2023/12/23 03:06:37;;;;;;;;;;;;;;;7.86;nan;99572.22;5012169;28;20011;-84
2023/12/23 03:09:03;;;;;;;;;;;;;;;7.85;nan;99568.75;5030852;28;20408;-84
2023/12/23 03:11:28;;;;;;;;;;;;;;;7.82;nan;99576.47;5029513;28;19920;-84
2023/12/23 03:13:54;;;;;;;;;;;;;;;7.84;nan;99588.47;5032159;28;20040;-83
2023/12/23 03:16:19;;;;;;;;;;;;;;;7.82;nan;99584.47;5031400;28;19925;-84
2023/12/23 03:18:44;;;;;;;;;;;;;;;7.80;nan;99589.28;5029388;28;19925;-83
2023/12/23 03:21:10;;;;;;;;;;;;;;;7.76;nan;99596.97;5030195;28;19964;-83
2023/12/23 03:23:35;;;;;;;;;;;;;;;7.76;nan;99604.19;5031068;28;20348;-83
2023/12/23 03:26:00;;;;;;;;;;;;;;;7.76;nan;99614.84;5031766;28;20027;-84
2023/12/23 03:28:26;;;;;;;;;;;;;;;7.73;nan;99618.03;5029631;28;19931;-83
2023/12/23 03:30:51;;;;;;;;;;;;;;;7.73;nan;99607.38;5030276;28;19936;-83
2023/12/23 03:33:16;;;;;;;;;;;;;;;7.72;nan;99614.56;5030019;28;19931;-82
2023/12/23 03:35:41;;;;;;;;;;;;;;;7.73;nan;99618.03;5030153;28;19948;-84
2023/12/23 03:38:07;;;;;;;;;;;;;;;7.75;nan;99623.91;5029856;28;19947;-84
2023/12/23 03:40:32;;;;;;;;;;;;;;;7.72;nan;99625.22;5030155;28;19929;-84
2023/12/23 03:42:57;;;;;;;;;;;;;;;7.75;nan;99631.91;5030983;28;21288;-84
2023/12/23 03:45:22;;;;;;;;;;;;;;;7.72;nan;99632.41;5030517;28;19928;-84
2023/12/23 03:47:49;;;;;;;;;;;;;;;7.69;nan;99630.25;5030816;28;19932;-84
2023/12/23 03:50:15;;;;;;;;;;;;;;;7.68;nan;99637.44;5029161;28;20424;-84
2023/12/23 03:52:40;;;;;;;;;;;;;;;7.68;nan;99637.44;5029843;28;19925;-83
2023/12/23 03:55:05;;;;;;;;;;;;;;;7.66;nan;99644.09;5030062;28;19932;-84
2023/12/23 03:57:31;;;;;;;;;;;;;;;7.64;nan;99654.22;5012146;28;20000;-84
2023/12/23 03:59:56;;;;;;;;;;;;;;;7.66;nan;99638.75;5029969;28;19925;-84
2023/12/23 04:02:21;;;;;;;;;;;;;;;7.68;nan;99644.63;5029586;28;20558;-84
2023/12/23 04:04:47;;;;;;;;;;;;;;;7.64;nan;99643.53;5029121;28;20031;-83
2023/12/23 04:07:12;;;;;;;;;;;;;;;7.62;nan;99643.81;5027941;28;20347;-84
2023/12/23 04:09:37;;;;;;;;;;;;;;;7.60;nan;99650.44;5027775;28;19925;-84
2023/12/23 04:12:02;;;;;;;;;;;;;;;7.61;nan;99657.38;5029971;28;19924;-84
2023/12/23 04:14:28;;;;;;;;;;;;;;;7.64;nan;99659.53;5029728;28;20369;-83
2023/12/23 04:16:53;;;;;;;;;;;;;;;7.64;nan;99657.69;5029625;28;19925;-84
2023/12/23 04:19:18;;;;;;;;;;;;;;;7.64;nan;99647.00;5010225;28;19925;-84
2023/12/23 04:21:44;;;;;;;;;;;;;;;7.64;nan;99649.69;5028976;28;19968;-84
2023/12/23 04:24:09;;;;;;;;;;;;;;;7.67;nan;99654.50;5029101;28;19944;-84
2023/12/23 04:26:34;;;;;;;;;;;;;;;7.58;nan;99656.84;5029084;28;19967;-84
2023/12/23 04:28:59;;;;;;;;;;;;;;;7.57;nan;99673.91;5030125;28;19931;-83
2023/12/23 04:31:25;;;;;;;;;;;;;;;7.59;nan;99673.63;5029078;28;19925;-84
2023/12/23 04:33:51;;;;;;;;;;;;;;;7.60;nan;99677.09;5028515;28;20426;-83
2023/12/23 04:36:21;;;;;;;;;;;;;;;7.61;nan;99686.72;5029625;28;20039;-84
2023/12/23 04:38:47;;;;;;;;;;;;;;;7.61;nan;99681.38;5028954;28;19924;-83
2023/12/23 04:41:12;;;;;;;;;;;;;;;7.61;nan;99684.84;5028421;28;19994;-84
2023/12/23 04:43:37;;;;;;;;;;;;;;;7.58;nan;99693.34;5028692;28;19924;-84
2023/12/23 04:46:03;;;;;;;;;;;;;;;7.57;nan;99692.56;5028595;28;19925;-84
2023/12/23 04:48:28;;;;;;;;;;;;;;;7.52;nan;99689.81;5029337;28;20004;-85
2023/12/23 04:50:53;;;;;;;;;;;;;;;7.51;nan;99690.88;5027295;28;20515;-84
2023/12/23 04:53:19;;;;;;;;;;;;;;;7.53;nan;99683.44;5028824;28;20858;-83
2023/12/23 04:55:45;;;;;;;;;;;;;;;7.52;nan;99683.69;5026246;28;19932;-83
2023/12/23 04:58:10;;;;;;;;;;;;;;;7.51;nan;99682.88;5027080;28;19960;-83
2023/12/23 05:00:36;;;;;;;;;;;;;;;7.48;nan;99683.41;5029160;28;20401;-84
2023/12/23 05:03:01;;;;;;;;;;;;;;;7.50;nan;99673.28;5030076;28;19971;-83
2023/12/23 05:05:27;;;;;;;;;;;;;;;7.51;nan;99671.41;5028286;28;19925;-83
2023/12/23 05:07:52;;;;;;;;;;;;;;;7.47;nan;99670.34;5030183;28;19968;-84
2023/12/23 05:10:18;;;;;;;;;;;;;;;7.48;nan;99655.94;5026335;28;20434;-84
2023/12/23 05:12:43;;;;;;;;;;;;;;;7.51;nan;99653.56;5026018;28;19956;-84
2023/12/23 05:15:08;;;;;;;;;;;;;;;7.53;nan;99651.44;5028334;28;20020;-83
2023/12/23 05:17:33;;;;;;;;;;;;;;;7.54;nan;99655.75;5024032;28;19967;-84
2023/12/23 05:19:59;;;;;;;;;;;;;;;7.55;nan;99662.69;5022815;28;20031;-83
2023/12/23 05:22:24;;;;;;;;;;;;;;;7.53;nan;99670.09;5025506;28;19925;-83
2023/12/23 05:24:49;;;;;;;;;;;;;;;7.55;nan;99664.56;5024472;28;19925;-84
2023/12/23 05:27:15;;;;;;;;;;;;;;;7.56;nan;99672.28;5024320;28;20428;-83
2023/12/23 05:29:41;;;;;;;;;;;;;;;7.57;nan;99665.91;5027152;28;19921;-84
2023/12/23 05:32:06;;;;;;;;;;;;;;;7.61;nan;99670.72;5025329;28;20568;-84
2023/12/23 05:34:32;;;;;;;;;;;;;;;7.56;nan;99661.63;5024479;28;20608;-84
2023/12/23 05:36:57;;;;;;;;;;;;;;;7.58;nan;99648.03;5025892;28;19970;-84
2023/12/23 05:39:22;;;;;;;;;;;;;;;7.61;nan;99652.06;5025132;28;19925;-85
2023/12/23 05:41:47;;;;;;;;;;;;;;;7.60;nan;99647.78;5025679;28;20015;-83
2023/12/23 05:44:13;;;;;;;;;;;;;;;7.63;nan;99656.06;5024711;28;20460;-83
2023/12/23 05:46:38;;;;;;;;;;;;;;;7.64;nan;99654.22;5025592;28;19928;-83
2023/12/23 05:49:03;;;;;;;;;;;;;;;7.68;nan;99656.09;5026385;28;20456;-85
2023/12/23 05:51:29;;;;;;;;;;;;;;;7.68;nan;99657.97;5030022;28;19925;-84
2023/12/23 05:53:54;;;;;;;;;;;;;;;7.70;nan;99650.50;5031446;28;19931;-84
2023/12/23 05:56:19;;;;;;;;;;;;;;;7.72;nan;99653.72;5028942;28;19968;-84
2023/12/23 05:58:45;;;;;;;;;;;;;;;7.73;nan;99666.03;5031065;28;20458;-84
2023/12/23 06:01:10;;;;;;;;;;;;;;;7.75;nan;99658.56;5032480;28;19931;-84
2023/12/23 06:03:35;;;;;;;;;;;;;;;7.70;nan;99653.19;5014000;28;21203;-84
2023/12/23 06:06:03;;;;;;;;;;;;;;;7.73;nan;99656.16;5030289;28;19928;-83
2023/12/23 06:08:29;;;;;;;;;;;;;;;7.73;nan;99650.03;5030640;28;19993;-84
2023/12/23 06:10:54;;;;;;;;;;;;;;;7.69;nan;99648.91;5029404;28;20504;-84
2023/12/23 06:13:20;;;;;;;;;;;;;;;7.71;nan;99650.25;5030321;28;19921;-84
2023/12/23 06:15:45;;;;;;;;;;;;;;;7.73;nan;99644.69;5031032;28;20435;-84
2023/12/23 06:18:11;;;;;;;;;;;;;;;7.76;nan;99641.50;5031266;28;19925;-84
2023/12/23 06:20:36;;;;;;;;;;;;;;;7.81;nan;99637.00;5027929;28;20385;-84
2023/12/23 06:23:01;;;;;;;;;;;;;;;7.82;nan;99640.47;5031656;28;20677;-84
2023/12/23 06:25:26;;;;;;;;;;;;;;;7.87;nan;99643.16;5029271;28;20036;-84
2023/12/23 06:27:52;;;;;;;;;;;;;;;7.88;nan;99642.09;5030851;28;19925;-84
2023/12/23 06:30:17;;;;;;;;;;;;;;;7.97;nan;99631.78;5030794;28;20396;-83
2023/12/23 06:32:42;;;;;;;;;;;;;;;7.94;nan;99643.75;5030129;28;19925;-84
2023/12/23 06:35:08;;;;;;;;;;;;;;;7.93;nan;99639.50;5029960;28;20457;-84
2023/12/23 06:37:33;;;;;;;;;;;;;;;7.94;nan;99633.09;5030774;28;19931;-84
2023/12/23 06:39:59;;;;;;;;;;;;;;;8.00;nan;99637.38;5030694;28;19946;-83
2023/12/23 06:42:25;;;;;;;;;;;;;;;7.98;nan;99646.72;5026976;28;20591;-83
2023/12/23 06:44:50;;;;;;;;;;;;;;;7.97;nan;99632.56;5030579;28;19932;-83
2023/12/23 06:47:15;;;;;;;;;;;;;;;8.04;nan;99629.66;5031013;28;19960;-84
2023/12/23 06:49:41;;;;;;;;;;;;;;;8.00;nan;99626.72;5028980;28;19924;-83
2023/12/23 06:52:06;;;;;;;;;;;;;;;8.03;nan;99630.72;5030422;28;19986;-84
2023/12/23 06:54:31;;;;;;;;;;;;;;;8.05;nan;99632.06;5030639;28;20008;-83
2023/12/23 06:56:56;;;;;;;;;;;;;;;8.08;nan;99630.78;5030865;28;19934;-84
2023/12/23 06:59:22;;;;;;;;;;;;;;;8.06;nan;99612.34;5031355;28;20538;-84
2023/12/23 07:01:47;;;;;;;;;;;;;;;8.11;nan;99635.59;5028164;28;19948;-83
2023/12/23 07:04:12;;;;;;;;;;;;;;;8.12;nan;99630.00;5029210;28;19925;-84
2023/12/23 07:06:37;;;;;;;;;;;;;;;8.12;nan;99624.66;5030313;28;19932;-84
2023/12/23 07:09:03;;;;;;;;;;;;;;;8.15;nan;99623.34;5029143;28;19968;-84
2023/12/23 07:11:28;;;;;;;;;;;;;;;8.22;nan;99620.44;5029866;28;20589;-84
2023/12/23 07:13:53;;;;;;;;;;;;;;;8.23;nan;99617.50;5029742;28;20278;-84
2023/12/23 07:16:19;;;;;;;;;;;;;;;8.31;nan;99626.88;5030003;28;19931;-84
2023/12/23 07:18:44;;;;;;;;;;;;;;;8.33;nan;99630.91;5028933;28;19982;-84
2023/12/23 07:21:10;;;;;;;;;;;;;;;8.34;nan;99627.19;5029725;28;20020;-84
2023/12/23 07:23:36;;;;;;;;;;;;;;;8.40;nan;99620.00;5028437;28;19921;-84
2023/12/23 07:26:02;;;;;;;;;;;;;;;8.39;nan;99634.41;5031224;28;19924;-83
2023/12/23 07:28:27;;;;;;;;;;;;;;;8.43;nan;99622.16;5028278;28;19925;-83
2023/12/23 07:30:52;;;;;;;;;;;;;;;8.49;nan;99607.78;5029242;28;19932;-83
2023/12/23 07:33:18;;;;;;;;;;;;;;;8.55;nan;99612.06;5029408;28;19932;-84
2023/12/23 07:35:43;;;;;;;;;;;;;;;8.48;nan;99608.84;5029311;28;19931;-84
2023/12/23 07:38:08;;;;;;;;;;;;;;;8.46;nan;99603.75;5028810;28;19971;-83
2023/12/23 07:40:35;;;;;;;;;;;;;;;8.47;nan;99610.72;5029696;28;20381;-84
2023/12/23 07:43:00;;;;;;;;;;;;;;;8.48;nan;99616.84;5027314;28;19932;-84
2023/12/23 07:45:25;;;;;;;;;;;;;;;8.53;nan;99614.19;5029359;28;19925;-84
2023/12/23 07:47:51;;;;;;;;;;;;;;;8.55;nan;99606.72;5028231;28;19940;-83
2023/12/23 07:50:16;;;;;;;;;;;;;;;8.51;nan;99613.66;5029463;28;21347;-84
2023/12/23 07:52:41;;;;;;;;;;;;;;;8.51;nan;99610.97;5029598;28;19920;-84
2023/12/23 07:55:07;;;;;;;;;;;;;;;8.59;nan;99607.78;5028766;28;19929;-84
2023/12/23 07:57:32;;;;;;;;;;;;;;;8.58;nan;99610.72;5029282;28;19932;-84
2023/12/23 07:59:57;;;;;;;;;;;;;;;8.61;nan;99616.34;5009652;28;20355;-84
2023/12/23 08:02:23;;;;;;;;;;;;;;;8.65;nan;99617.44;5029197;28;20051;-84
2023/12/23 08:04:48;;;;;;;;;;;;;;;8.68;nan;99624.13;5028562;28;20411;-83
2023/12/23 08:07:13;;;;;;;;;;;;;;;8.74;nan;99617.72;5029162;28;19979;-84
2023/12/23 08:09:39;;;;;;;;;;;;;;;8.73;nan;99619.59;5028153;28;20420;-83
2023/12/23 08:12:04;;;;;;;;;;;;;;;8.71;nan;99612.91;5029690;28;19975;-83
2023/12/23 08:14:29;;;;;;;;;;;;;;;8.74;nan;99623.84;5009930;28;20499;-84
2023/12/23 08:16:55;;;;;;;;;;;;;;;8.74;nan;99615.84;5010382;28;19929;-84
2023/12/23 08:19:20;;;;;;;;;;;;;;;8.74;nan;99621.19;5028282;28;19928;-84
2023/12/23 08:21:45;;;;;;;;;;;;;;;8.73;nan;99608.91;5028660;28;19936;-84
2023/12/23 08:24:12;;;;;;;;;;;;;;;8.74;nan;99615.84;5028937;28;20381;-85
2023/12/23 08:26:37;;;;;;;;;;;;;;;8.77;nan;99614.50;5035994;28;19931;-83
2023/12/23 08:29:03;;;;;;;;;;;;;;;8.80;nan;99611.34;5039513;28;20354;-84
2023/12/23 08:31:28;;;;;;;;;;;;;;;8.81;nan;99610.28;5023579;28;20287;-83
2023/12/23 08:33:53;;;;;;;;;;;;;;;8.84;nan;99622.28;5038119;28;20668;-83
2023/12/23 08:36:19;;;;;;;;;;;;;;;8.82;nan;99625.22;5038426;28;19921;-84
2023/12/23 08:38:44;;;;;;;;;;;;;;;8.85;nan;99618.56;5040134;28;19990;-84
2023/12/23 08:41:09;;;;;;;;;;;;;;;8.90;nan;99623.91;5039337;28;19971;-84
2023/12/23 08:43:34;;;;;;;;;;;;;;;8.92;nan;99617.22;5033899;28;19921;-83
2023/12/23 08:46:00;;;;;;;;;;;;;;;8.90;nan;99619.34;5043324;28;20412;-84
2023/12/23 08:48:25;;;;;;;;;;;;;;;8.91;nan;99620.16;5039357;28;19920;-84
2023/12/23 08:50:50;;;;;;;;;;;;;;;8.94;nan;99614.28;5039943;28;19917;-84
2023/12/23 08:53:17;;;;;;;;;;;;;;;8.99;nan;99619.66;5037092;28;19920;-84
2023/12/23 08:55:44;;;;;;;;;;;;;;;8.96;nan;99612.94;5043181;28;19967;-83
2023/12/23 08:58:09;;;;;;;;;;;;;;;8.97;nan;99619.09;5041779;28;19975;-84
2023/12/23 09:00:35;;;;;;;;;;;;;;;9.06;nan;99623.66;5037304;28;19925;-84
2023/12/23 09:03:00;;;;;;;;;;;;;;;9.11;nan;99622.06;5043298;28;20000;-83
2023/12/23 09:05:26;;;;;;;;;;;;;;;9.11;nan;99622.88;5042483;28;20373;-84
2023/12/23 09:07:51;;;;;;;;;;;;;;;9.14;nan;99622.31;5043941;28;19924;-84
2023/12/23 09:10:16;;;;;;;;;;;;;;;9.16;nan;99624.75;5041589;28;19925;-83
2023/12/23 09:12:41;;;;;;;;;;;;;;;9.18;nan;99630.63;5040310;28;20008;-84
2023/12/23 09:15:07;;;;;;;;;;;;;;;9.21;nan;99627.44;5041221;28;19931;-84
2023/12/23 09:17:32;;;;;;;;;;;;;;;9.25;nan;99618.59;5047092;28;20296;-84
2023/12/23 09:19:58;;;;;;;;;;;;;;;9.27;nan;99613.00;5039363;28;20351;-84
2023/12/23 09:22:23;;;;;;;;;;;;;;;9.23;nan;99622.63;5038374;28;19998;-84
2023/12/23 09:24:48;;;;;;;;;;;;;;;9.26;nan;99632.78;5040301;28;19917;-84
2023/12/23 09:27:13;;;;;;;;;;;;;;;9.24;nan;99619.69;5044217;28;20278;-84
2023/12/23 09:29:39;;;;;;;;;;;;;;;9.25;nan;99625.81;5043275;28;19917;-85
2023/12/23 09:32:04;;;;;;;;;;;;;;;9.32;nan;99627.16;5039981;28;19921;-83
2023/12/23 09:34:29;;;;;;;;;;;;;;;9.35;nan;99631.19;5040043;28;19928;-85
2023/12/23 09:36:55;;;;;;;;;;;;;;;9.38;nan;99620.75;5038719;28;19963;-84
2023/12/23 09:39:20;;;;;;;;;;;;;;;9.37;nan;99632.53;5038220;28;19957;-84
2023/12/23 09:41:46;;;;;;;;;;;;;;;9.36;nan;99627.44;5034196;28;19928;-84
2023/12/23 09:44:12;;;;;;;;;;;;;;;9.38;nan;99631.44;5031567;28;19921;-84
2023/12/23 09:46:37;;;;;;;;;;;;;;;9.37;nan;99640.53;5034675;28;19924;-83
2023/12/23 09:49:03;;;;;;;;;;;;;;;9.37;nan;99632.53;5039038;28;19921;-84
2023/12/23 09:51:30;;;;;;;;;;;;;;;9.44;nan;99639.47;5039616;28;19960;-85
2023/12/23 09:53:57;;;;;;;;;;;;;;;9.45;nan;99636.53;5040676;28;19921;-84
2023/12/23 09:56:23;;;;;;;;;;;;;;;9.50;nan;99635.72;5033641;28;21283;-84
2023/12/23 09:58:49;;;;;;;;;;;;;;;9.48;nan;99630.63;5038426;28;20454;-85
2023/12/23 10:01:14;;;;;;;;;;;;;;;9.53;nan;99633.31;5023182;28;19925;-84
2023/12/23 10:03:39;;;;;;;;;;;;;;;9.55;nan;99627.72;5039320;28;19921;-84
2023/12/23 10:06:04;;;;;;;;;;;;;;;9.58;nan;99633.31;5035399;28;19927;-84
2023/12/23 10:08:30;;;;;;;;;;;;;;;9.61;nan;99634.66;5041340;28;20416;-84
2023/12/23 10:10:55;;;;;;;;;;;;;;;9.54;nan;99639.47;5040122;28;19920;-84
2023/12/23 10:13:20;;;;;;;;;;;;;;;9.57;nan;99634.38;5038545;28;20039;-84
2023/12/23 10:15:46;;;;;;;;;;;;;;;9.64;nan;99632.22;5037264;28;19932;-84
2023/12/23 10:18:12;;;;;;;;;;;;;;;9.69;nan;99631.41;5033816;28;19921;-83
2023/12/23 10:20:37;;;;;;;;;;;;;;;9.76;nan;99633.84;5038111;28;20394;-84
2023/12/23 10:23:02;;;;;;;;;;;;;;;9.80;nan;99634.91;5037415;28;20266;-84
2023/12/23 10:25:28;;;;;;;;;;;;;;;9.80;nan;99637.56;5042195;28;19921;-84
2023/12/23 10:27:56;;;;;;;;;;;;;;;9.75;nan;99640.25;5037475;28;20373;-84
2023/12/23 10:30:23;;;;;;;;;;;;;;;9.69;nan;99632.25;5035990;28;20776;-84
2023/12/23 10:32:49;;;;;;;;;;;;;;;9.66;nan;99631.97;5037760;28;20434;-83
2023/12/23 10:35:15;;;;;;;;;;;;;;;9.63;nan;99630.63;5036774;28;19921;-84
2023/12/23 10:37:42;;;;;;;;;;;;;;;9.68;nan;99645.88;5016066;28;19920;-84
2023/12/23 10:40:18;;;;;;;;;;;;;;;9.70;nan;99627.69;5040764;28;19960;-84
2023/12/23 10:42:43;;;;;;;;;;;;;;;9.72;nan;99630.91;5037844;28;19928;-83
2023/12/23 10:45:10;;;;;;;;;;;;;;;9.75;nan;99635.72;5041266;28;19932;-84
2023/12/23 10:47:35;;;;;;;;;;;;;;;9.78;nan;99632.50;5039599;28;20428;-85
2023/12/23 10:50:01;;;;;;;;;;;;;;;9.80;nan;99633.03;5036530;28;20043;-84
2023/12/23 10:52:26;;;;;;;;;;;;;;;9.79;nan;99627.94;5042452;28;19927;-84
2023/12/23 10:54:52;;;;;;;;;;;;;;;9.79;nan;99623.41;5038475;28;19975;-84
2023/12/23 10:57:18;;;;;;;;;;;;;;;9.79;nan;99630.63;5035626;28;20450;-85
2023/12/23 10:59:43;;;;;;;;;;;;;;;9.74;nan;99626.09;5041935;28;19956;-85
2023/12/23 11:02:15;;;;;;;;;;;;;;;9.75;nan;99630.38;5034599;28;20097;-84
2023/12/23 11:04:46;;;;;;;;;;;;;;;9.76;nan;99634.63;5037223;28;20281;-84
2023/12/23 11:07:13;;;;;;;;;;;;;;;9.75;nan;99635.72;5038554;28;19920;-85
2023/12/23 11:09:40;;;;;;;;;;;;;;;9.73;nan;99627.16;5036011;28;19971;-83
2023/12/23 11:12:05;;;;;;;;;;;;;;;9.69;nan;99634.09;5036919;28;19921;-84
2023/12/23 11:14:30;;;;;;;;;;;;;;;9.64;nan;99637.59;5042496;28;19924;-84
2023/12/23 11:16:58;;;;;;;;;;;;;;;9.62;nan;99642.41;5036775;28;19925;-85
2023/12/23 11:19:24;;;;;;;;;;;;;;;9.63;nan;99643.19;5037792;28;19980;-85
2023/12/23 11:22:10;;;;;;;;;;;;;;;9.62;nan;99631.69;5036888;28;19932;-85
2023/12/23 11:24:36;;;;;;;;;;;;;;;9.66;nan;99638.09;5027688;28;19920;-84
2023/12/23 11:27:01;;;;;;;;;;;;;;;9.68;nan;99643.19;5039816;28;19921;-84
2023/12/23 11:29:26;;;;;;;;;;;;;;;9.69;nan;99655.50;5035784;28;20379;-84
2023/12/23 11:32:08;;;;;;;;;;;;;;;9.71;nan;99655.25;5035054;28;19921;-84
2023/12/23 11:34:33;;;;;;;;;;;;;;;9.64;nan;99650.16;5014375;28;19936;-84
2023/12/23 11:36:59;;;;;;;;;;;;;;;9.69;nan;99652.81;5036976;28;19925;-85
2023/12/23 11:39:24;;;;;;;;;;;;;;;9.70;nan;99651.78;5029073;28;19921;-84
2023/12/23 11:41:50;;;;;;;;;;;;;;;9.73;nan;99653.91;5042898;28;20449;-85
2023/12/23 11:44:15;;;;;;;;;;;;;;;9.68;nan;99652.00;5036181;28;19963;-85
2023/12/23 11:46:41;;;;;;;;;;;;;;;9.63;nan;99657.38;5039487;28;20293;-84
2023/12/23 11:49:10;;;;;;;;;;;;;;;9.61;nan;99650.69;5036825;28;19952;-84
2023/12/23 11:51:38;;;;;;;;;;;;;;;9.64;nan;99655.50;5045194;28;19955;-84
2023/12/23 11:54:03;;;;;;;;;;;;;;;9.69;nan;99667.03;5037006;28;19931;-84
2023/12/23 11:56:29;;;;;;;;;;;;;;;9.67;nan;99654.97;5038774;28;19933;-85
2023/12/23 11:58:54;;;;;;;;;;;;;;;9.64;nan;99666.19;5042002;28;19952;-83
2023/12/23 12:01:19;;;;;;;;;;;;;;;9.63;nan;99661.91;5038134;28;20300;-83
2023/12/23 12:03:46;;;;;;;;;;;;;;;9.65;nan;99670.47;5033156;28;20416;-83
2023/12/23 12:06:11;;;;;;;;;;;;;;;9.65;nan;99673.94;5037107;28;19925;-84
2023/12/23 12:08:37;;;;;;;;;;;;;;;9.62;nan;99661.13;5039416;28;20473;-80
2023/12/23 12:11:03;;;;;;;;;;;;;;;9.61;nan;99675.56;5040605;28;20086;-83
2023/12/23 12:13:29;;;;;;;;;;;;;;;9.59;nan;99671.56;5036934;28;19921;-83
2023/12/23 12:15:54;;;;;;;;;;;;;;;9.56;nan;99674.78;5032195;28;19921;-83
2023/12/23 12:18:19;;;;;;;;;;;;;;;9.53;nan;99686.81;5039500;28;19927;-83
2023/12/23 12:20:47;;;;;;;;;;;;;;;9.51;nan;99675.53;5037591;28;20432;-82
2023/12/23 12:23:16;;;;;;;;;;;;;;;9.54;nan;99685.72;5037556;28;19964;-84
2023/12/23 12:25:50;;;;;;;;;;;;;;;9.54;nan;99676.91;5042950;28;19920;-83
2023/12/23 12:28:16;;;;;;;;;;;;;;;9.56;nan;99685.47;5032702;28;19927;-83
2023/12/23 12:30:44;;;;;;;;;;;;;;;9.55;nan;99686.53;5038220;28;19940;-84
2023/12/23 12:33:14;;;;;;;;;;;;;;;9.54;nan;99691.09;5037341;28;19920;-85
2023/12/23 12:35:39;;;;;;;;;;;;;;;9.53;nan;99689.47;5033826;28;19968;-85
2023/12/23 12:38:10;;;;;;;;;;;;;;;9.56;nan;99690.81;5033237;28;19925;-84
2023/12/23 12:40:35;;;;;;;;;;;;;;;9.52;nan;99698.56;5030137;28;19921;-85
2023/12/23 12:43:07;;;;;;;;;;;;;;;9.53;nan;99702.84;5037039;28;19924;-84
2023/12/23 12:45:36;;;;;;;;;;;;;;;9.54;nan;99696.44;5032556;28;20566;-84
2023/12/23 12:48:04;;;;;;;;;;;;;;;9.57;nan;99703.91;5033578;28;20232;-83
2023/12/23 12:50:30;;;;;;;;;;;;;;;9.54;nan;99693.75;5031365;28;20059;-84
2023/12/23 12:52:57;;;;;;;;;;;;;;;9.58;nan;99691.34;5031984;28;19928;-84
2023/12/23 12:55:28;;;;;;;;;;;;;;;9.58;nan;99691.34;5038701;28;20808;-85
2023/12/23 12:57:57;;;;;;;;;;;;;;;9.56;nan;99698.84;5036895;28;19924;-84
2023/12/23 13:00:23;;;;;;;;;;;;;;;9.48;nan;99700.16;5033253;28;20386;-86
2023/12/23 13:02:48;;;;;;;;;;;;;;;9.52;nan;99697.78;5032984;28;19925;-85
2023/12/23 13:05:14;;;;;;;;;;;;;;;9.50;nan;99703.34;5038905;28;19921;-84
2023/12/23 13:07:39;;;;;;;;;;;;;;;9.47;nan;99703.09;5037793;28;20024;-84
2023/12/23 13:10:05;;;;;;;;;;;;;;;9.49;nan;99708.97;5032040;28;19920;-84